Time;durP1;ratioP1;P1;durP2;ratioP2;P2;SDS_P1;SDS_P2;PMS_P1;PMS_P2;Temp;Humidity;BMP_temperature;BMP_pressure;BME280_temperature;BME280_humidity;BME280_pressure;Samples;Min_cycle;Max_cycle;Signal;HPM_P1;HPM_P2
2021/04/30 00:01:45;;;;;;;;;;;;;;;;;;4204008;34;19978;-85
2021/04/30 00:04:16;;;;;;;;;;;;;;;;;;4206182;34;20006;-84
2021/04/30 00:06:47;;;;;;;;;;;;;;;;;;4209074;34;20020;-85
2021/04/30 00:09:15;;;;;;;;;;;;;;;;;;4211297;34;20058;-84
2021/04/30 00:11:48;;;;;;;;;;;;;;;;;;4211140;34;19958;-84
2021/04/30 00:14:20;;;;;;;;;;;;;;;;;;4206975;34;20353;-84
2021/04/30 00:16:52;;;;;;;;;;;;;;;;;;4209133;34;20124;-85
2021/04/30 00:19:22;;;;;;;;;;;;;;;;;;4206265;34;20375;-84
2021/04/30 00:21:52;;;;;;;;;;;;;;;;;;4203518;34;20033;-84
2021/04/30 00:24:23;;;;;;;;;;;;;;;;;;4206015;34;20394;-84
2021/04/30 00:26:52;;;;;;;;;;;;;;;;;;4209654;34;19977;-84
2021/04/30 00:29:23;;;;;;;;;;;;;;;;;;4208398;34;19947;-85
2021/04/30 00:31:54;;;;;;;;;;;;;;;;;;4204222;34;19959;-84
2021/04/30 00:34:24;;;;;;;;;;;;;;;;;;4203255;34;20006;-84
2021/04/30 00:36:54;;;;;;;;;;;;;;;;;;4192722;34;20066;-84
2021/04/30 00:39:24;;;;;;;;;;;;;;;;;;4208072;34;20053;-84
2021/04/30 00:41:54;;;;;;;;;;;;;;;;;;4201259;34;20032;-85
2021/04/30 00:44:25;;;;;;;;;;;;;;;;;;4203793;34;20002;-85
2021/04/30 00:46:54;;;;;;;;;;;;;;;;;;4202958;34;20108;-84
2021/04/30 00:49:25;;;;;;;;;;;;;;;;;;4210145;34;20448;-85
2021/04/30 00:51:52;;;;;;;;;;;;;;;;;;4192543;34;20575;-84
2021/04/30 00:54:43;;;;;;;;;;;;;;;;;;4187087;34;19998;-83
2021/04/30 00:57:13;;;;;;;;;;;;;;;;;;4191712;34;19977;-84
2021/04/30 00:59:44;;;;;;;;;;;;;;;;;;4194059;34;19955;-84
2021/04/30 01:02:15;;;;;;;;;;;;;;;;;;4190589;34;20402;-85
2021/04/30 01:04:45;;;;;;;;;;;;;;;;;;4193798;34;19951;-83
2021/04/30 01:07:15;;;;;;;;;;;;;;;;;;4189097;34;20279;-85
2021/04/30 01:09:46;;;;;;;;;;;;;;;;;;4190933;34;21519;-84
2021/04/30 01:12:16;;;;;;;;;;;;;;;;;;4187441;34;20002;-84
2021/04/30 01:14:46;;;;;;;;;;;;;;;;;;4192586;34;19974;-84
2021/04/30 01:17:16;;;;;;;;;;;;;;;;;;4201852;34;20120;-84
2021/04/30 01:19:47;;;;;;;;;;;;;;;;;;4188592;34;20003;-84
2021/04/30 01:22:17;;;;;;;;;;;;;;;;;;4199292;34;20002;-84
2021/04/30 01:24:47;;;;;;;;;;;;;;;;;;4175608;34;20027;-84
2021/04/30 01:27:18;;;;;;;;;;;;;;;;;;4181277;34;20010;-84
2021/04/30 01:29:48;;;;;;;;;;;;;;;;;;4185074;34;19999;-83
2021/04/30 01:32:18;;;;;;;;;;;;;;;;;;4190884;34;19993;-83
2021/04/30 01:34:46;;;;;;;;;;;;;;;;;;4189096;34;20372;-84
2021/04/30 01:37:16;;;;;;;;;;;;;;;;;;4170922;34;20662;-83
2021/04/30 01:39:44;;;;;;;;;;;;;;;;;;4185005;34;19974;-83
2021/04/30 01:42:14;;;;;;;;;;;;;;;;;;4187818;34;20036;-83
2021/04/30 01:44:44;;;;;;;;;;;;;;;;;;4187657;34;19999;-84
2021/04/30 01:47:16;;;;;;;;;;;;;;;;;;4187574;34;20006;-85
2021/04/30 01:49:47;;;;;;;;;;;;;;;;;;4189602;34;20497;-83
2021/04/30 01:52:18;;;;;;;;;;;;;;;;;;4203159;34;20037;-84
2021/04/30 01:54:45;;;;;;;;;;;;;;;;;;4201491;34;19955;-84
2021/04/30 01:57:16;;;;;;;;;;;;;;;;;;4207360;34;19951;-83
2021/04/30 01:59:46;;;;;;;;;;;;;;;;;;4208505;34;19969;-84
2021/04/30 02:02:16;;;;;;;;;;;;;;;;;;4203134;34;20002;-83
2021/04/30 02:04:47;;;;;;;;;;;;;;;;;;4202525;34;19947;-83
2021/04/30 02:07:16;;;;;;;;;;;;;;;;;;4203482;34;20022;-83
2021/04/30 02:09:47;;;;;;;;;;;;;;;;;;4204393;34;20003;-85
2021/04/30 02:12:18;;;;;;;;;;;;;;;;;;4199947;34;20040;-83
2021/04/30 02:14:49;;;;;;;;;;;;;;;;;;4208810;34;19989;-83
2021/04/30 02:17:20;;;;;;;;;;;;;;;;;;4208572;34;19955;-83
2021/04/30 02:19:56;;;;;;;;;;;;;;;;;;4194126;34;20526;-83
2021/04/30 02:22:25;;;;;;;;;;;;;;;;;;4205093;34;20584;-84
2021/04/30 02:24:55;;;;;;;;;;;;;;;;;;4207909;34;20002;-84
2021/04/30 02:27:25;;;;;;;;;;;;;;;;;;4206096;34;20002;-83
2021/04/30 02:29:56;;;;;;;;;;;;;;;;;;4206208;34;19996;-84
2021/04/30 02:32:24;;;;;;;;;;;;;;;;;;4207653;34;20347;-83
2021/04/30 02:34:54;;;;;;;;;;;;;;;;;;4208737;34;19963;-84
2021/04/30 02:37:24;;;;;;;;;;;;;;;;;;4199025;34;20069;-84
2021/04/30 02:39:54;;;;;;;;;;;;;;;;;;4198297;34;20304;-84
2021/04/30 02:42:25;;;;;;;;;;;;;;;;;;4203169;34;19995;-83
2021/04/30 02:44:55;;;;;;;;;;;;;;;;;;4198176;34;19994;-83
2021/04/30 02:47:28;;;;;;;;;;;;;;;;;;4200508;34;20010;-83
2021/04/30 02:49:59;;;;;;;;;;;;;;;;;;4208452;34;20051;-83
2021/04/30 02:52:28;;;;;;;;;;;;;;;;;;4215162;34;19970;-84
2021/04/30 02:55:00;;;;;;;;;;;;;;;;;;4195540;34;19963;-83
2021/04/30 02:57:32;;;;;;;;;;;;;;;;;;4207847;34;20004;-83
2021/04/30 03:00:02;;;;;;;;;;;;;;;;;;4205512;34;19965;-83
2021/04/30 03:02:33;;;;;;;;;;;;;;;;;;4208394;34;20019;-83
2021/04/30 03:05:03;;;;;;;;;;;;;;;;;;4199396;34;20262;-83
2021/04/30 03:07:34;;;;;;;;;;;;;;;;;;4204367;34;19962;-84
2021/04/30 03:10:06;;;;;;;;;;;;;;;;;;4210473;34;19986;-84
2021/04/30 03:12:35;;;;;;;;;;;;;;;;;;4185738;29;19977;-96
2021/04/30 03:15:16;;;;;;;;;;;;;;;;;;4175719;34;19967;-96
2021/04/30 03:18:07;;;;;;;;;;;;;;;;;;4175967;34;20007;-96
2021/04/30 03:20:41;;;;;;;;;;;;;;;;;;4184623;34;20015;-95
2021/04/30 03:23:19;;;;;;;;;;;;;;;;;;4186916;34;20014;-96
2021/04/30 03:25:53;;;;;;;;;;;;;;;;;;4175498;34;19987;-95
2021/04/30 03:28:35;;;;;;;;;;;;;;;;;;4175832;34;19963;-96
2021/04/30 03:31:11;;;;;;;;;;;;;;;;;;4174592;34;19960;-96
2021/04/30 03:33:46;;;;;;;;;;;;;;;;;;4185724;34;20345;-96
2021/04/30 03:36:35;;;;;;;;;;;;;;;;;;4174215;34;19960;-96
2021/04/30 03:39:12;;;;;;;;;;;;;;;;;;4188046;34;19992;-96
2021/04/30 03:41:41;;;;;;;;;;;;;;;;;;4179939;34;19973;-95
2021/04/30 03:44:14;;;;;;;;;;;;;;;;;;4175290;34;20057;-96
2021/04/30 03:46:47;;;;;;;;;;;;;;;;;;4188726;34;20731;-96
2021/04/30 03:49:19;;;;;;;;;;;;;;;;;;4181421;34;20015;-96
2021/04/30 03:51:49;;;;;;;;;;;;;;;;;;4176423;34;20556;-96
2021/04/30 03:54:22;;;;;;;;;;;;;;;;;;4187691;34;20454;-96
2021/04/30 03:56:50;;;;;;;;;;;;;;;;;;4180843;34;20334;-96
2021/04/30 03:59:24;;;;;;;;;;;;;;;;;;4180923;34;19969;-96
2021/04/30 04:01:58;;;;;;;;;;;;;;;;;;4174989;34;20025;-94
2021/04/30 04:04:36;;;;;;;;;;;;;;;;;;4177142;34;19956;-96
2021/04/30 04:07:10;;;;;;;;;;;;;;;;;;4180652;34;19959;-96
2021/04/30 04:09:41;;;;;;;;;;;;;;;;;;4189960;34;19969;-96
2021/04/30 04:12:13;;;;;;;;;;;;;;;;;;4178211;34;20334;-96
2021/04/30 04:14:46;;;;;;;;;;;;;;;;;;4186661;34;19951;-96
2021/04/30 04:17:16;;;;;;;;;;;;;;;;;;4178790;34;20006;-96
2021/04/30 04:20:12;;;;;;;;;;;;;;;;;;4178330;34;19973;-96
2021/04/30 04:22:40;;;;;;;;;;;;;;;;;;4175944;34;21137;-96
2021/04/30 04:25:08;;;;;;;;;;;;;;;;;;4176675;34;19959;-96
2021/04/30 04:27:43;;;;;;;;;;;;;;;;;;4189966;34;19971;-96
2021/04/30 04:30:29;;;;;;;;;;;;;;;;;;4182505;34;20281;-96
2021/04/30 04:33:26;;;;;;;;;;;;;;;;;;4166390;34;19990;-96
2021/04/30 04:35:59;;;;;;;;;;;;;;;;;;4191671;34;19951;-96
2021/04/30 04:38:34;;;;;;;;;;;;;;;;;;4181371;34;20015;-96
2021/04/30 04:41:10;;;;;;;;;;;;;;;;;;4189154;34;20037;-96
2021/04/30 04:43:38;;;;;;;;;;;;;;;;;;4184136;34;19975;-96
2021/04/30 04:46:11;;;;;;;;;;;;;;;;;;4182683;34;19967;-96
2021/04/30 04:48:47;;;;;;;;;;;;;;;;;;4180966;34;20005;-96
2021/04/30 04:51:20;;;;;;;;;;;;;;;;;;4182450;34;20667;-96
2021/04/30 04:53:54;;;;;;;;;;;;;;;;;;4184142;34;20031;-96
2021/04/30 04:56:29;;;;;;;;;;;;;;;;;;4183775;34;19967;-96
2021/04/30 04:59:02;;;;;;;;;;;;;;;;;;4190103;34;19975;-96
2021/04/30 05:01:33;;;;;;;;;;;;;;;;;;4194820;34;19952;-96
2021/04/30 05:04:04;;;;;;;;;;;;;;;;;;4194491;34;19971;-96
2021/04/30 05:06:35;;;;;;;;;;;;;;;;;;4183484;34;19967;-96
2021/04/30 05:09:10;;;;;;;;;;;;;;;;;;4194835;34;19960;-96
2021/04/30 05:11:44;;;;;;;;;;;;;;;;;;4184397;34;20022;-96
2021/04/30 05:14:13;;;;;;;;;;;;;;;;;;4185447;34;19981;-95
2021/04/30 05:16:55;;;;;;;;;;;;;;;;;;4183874;34;20034;-96
2021/04/30 05:19:29;;;;;;;;;;;;;;;;;;4194905;34;19966;-96
2021/04/30 05:22:14;;;;;;;;;;;;;;;;;;4193084;34;20003;-96
2021/04/30 05:24:58;;;;;;;;;;;;;;;;;;4198376;34;19983;-96
2021/04/30 05:27:39;;;;;;;;;;;;;;;;;;4184127;34;19967;-96
2021/04/30 05:30:30;;;;;;;;;;;;;;;;;;4195061;34;19956;-96
2021/04/30 05:33:01;;;;;;;;;;;;;;;;;;4188010;34;20295;-96
2021/04/30 05:35:33;;;;;;;;;;;;;;;;;;4191905;34;19956;-96
2021/04/30 05:38:14;;;;;;;;;;;;;;;;;;4186452;34;20208;-96
2021/04/30 05:41:05;;;;;;;;;;;;;;;;;;4198924;34;20579;-96
2021/04/30 05:44:26;;;;;;;;;;;;;;;;;;4207296;34;19958;-96
2021/04/30 05:47:30;;;;;;;;;;;;;;;;;;4174623;34;19956;-96
2021/04/30 05:50:13;;;;;;;;;;;;;;;;;;4194453;34;20013;-95
2021/04/30 05:52:56;;;;;;;;;;;;;;;;;;4180998;34;19990;-96
2021/04/30 05:55:29;;;;;;;;;;;;;;;;;;4181332;34;20706;-96
2021/04/30 05:58:03;;;;;;;;;;;;;;;;;;4186938;34;19990;-96
2021/04/30 06:00:39;;;;;;;;;;;;;;;;;;4188083;34;20015;-96
2021/04/30 06:03:10;;;;;;;;;;;;;;;;;;4183987;34;19966;-96
2021/04/30 06:05:41;;;;;;;;;;;;;;;;;;4187799;34;19975;-96
2021/04/30 06:08:25;;;;;;;;;;;;;;;;;;4187852;34;19947;-96
2021/04/30 06:10:57;;;;;;;;;;;;;;;;;;4176028;34;20362;-96
2021/04/30 06:13:34;;;;;;;;;;;;;;;;;;4188053;34;19963;-96
2021/04/30 06:16:02;;;;;;;;;;;;;;;;;;4193914;34;19955;-96
2021/04/30 06:18:34;;;;;;;;;;;;;;;;;;4179680;34;19962;-96
2021/04/30 06:21:04;;;;;;;;;;;;;;;;;;4180856;34;19951;-95
2021/04/30 06:23:40;;;;;;;;;;;;;;;;;;4182987;34;19972;-96
2021/04/30 06:26:21;;;;;;;;;;;;;;;;;;4190930;34;19999;-96
2021/04/30 06:28:55;;;;;;;;;;;;;;;;;;4188362;34;19987;-96
2021/04/30 06:31:40;;;;;;;;;;;;;;;;;;4193657;34;19965;-96
2021/04/30 06:34:36;;;;;;;;;;;;;;;;;;4180548;34;19960;-96
2021/04/30 06:37:16;;;;;;;;;;;;;;;;;;4180283;34;19962;-96
2021/04/30 06:39:48;;;;;;;;;;;;;;;;;;4187361;34;19952;-96
2021/04/30 06:42:20;;;;;;;;;;;;;;;;;;4187069;34;19947;-96
2021/04/30 06:44:52;;;;;;;;;;;;;;;;;;4180894;34;19991;-96
2021/04/30 06:47:39;;;;;;;;;;;;;;;;;;4177259;34;19981;-96
2021/04/30 06:50:08;;;;;;;;;;;;;;;;;;4181575;34;19964;-96
2021/04/30 06:52:42;;;;;;;;;;;;;;;;;;4181828;34;19975;-96
2021/04/30 06:55:21;;;;;;;;;;;;;;;;;;4196109;34;20334;-96
2021/04/30 06:58:01;;;;;;;;;;;;;;;;;;4183874;34;19940;-96
2021/04/30 07:00:41;;;;;;;;;;;;;;;;;;4185254;34;20219;-96
2021/04/30 07:03:21;;;;;;;;;;;;;;;;;;4186655;34;19955;-96
2021/04/30 07:06:12;;;;;;;;;;;;;;;;;;4185279;34;20012;-96
2021/04/30 07:08:52;;;;;;;;;;;;;;;;;;4176089;34;20040;-96
2021/04/30 07:11:30;;;;;;;;;;;;;;;;;;4181138;34;19944;-95
2021/04/30 07:14:16;;;;;;;;;;;;;;;;;;4194985;34;19948;-96
2021/04/30 07:17:03;;;;;;;;;;;;;;;;;;4188259;34;19952;-96
2021/04/30 07:19:31;;;;;;;;;;;;;;;;;;4194267;34;20010;-96
2021/04/30 07:22:08;;;;;;;;;;;;;;;;;;4182509;34;20014;-96
2021/04/30 07:24:47;;;;;;;;;;;;;;;;;;4185065;34;19964;-96
2021/04/30 07:31:35;;;;;;;;;;;;;;;;;;4189128;34;19993;-96
2021/04/30 07:52:53;;;;;;;;;;;;;;;;;;4228258;29;19967;-83
2021/04/30 07:55:23;;;;;;;;;;;;;;;;;;4181124;34;19974;-83
2021/04/30 07:57:53;;;;;;;;;;;;;;;;;;4180565;34;20022;-82
2021/04/30 08:00:25;;;;;;;;;;;;;;;;;;4180920;34;20295;-85
2021/04/30 08:02:56;;;;;;;;;;;;;;;;;;4182501;34;19963;-84
2021/04/30 08:05:26;;;;;;;;;;;;;;;;;;4181053;34;19959;-84
2021/04/30 08:07:54;;;;;;;;;;;;;;;;;;4180759;34;20087;-84
2021/04/30 08:10:25;;;;;;;;;;;;;;;;;;4169294;34;20336;-84
2021/04/30 08:12:55;;;;;;;;;;;;;;;;;;4180077;34;19995;-84
2021/04/30 08:15:26;;;;;;;;;;;;;;;;;;4203544;34;19986;-84
2021/04/30 08:17:56;;;;;;;;;;;;;;;;;;4211551;34;20027;-84
2021/04/30 08:20:27;;;;;;;;;;;;;;;;;;4212936;34;19962;-83
2021/04/30 08:22:57;;;;;;;;;;;;;;;;;;4213760;34;20407;-84
2021/04/30 08:25:28;;;;;;;;;;;;;;;;;;4207232;34;19966;-83
2021/04/30 08:27:58;;;;;;;;;;;;;;;;;;4209488;34;20024;-84
2021/04/30 08:30:29;;;;;;;;;;;;;;;;;;4214065;34;20020;-83
2021/04/30 08:32:57;;;;;;;;;;;;;;;;;;4201344;34;19955;-83
2021/04/30 08:35:29;;;;;;;;;;;;;;;;;;4207402;34;20025;-84
2021/04/30 08:38:01;;;;;;;;;;;;;;;;;;4206970;34;20606;-84
2021/04/30 08:40:31;;;;;;;;;;;;;;;;;;4205618;34;20035;-84
2021/04/30 08:42:59;;;;;;;;;;;;;;;;;;4206658;34;20029;-83
2021/04/30 08:45:30;;;;;;;;;;;;;;;;;;4207872;34;19979;-83
2021/04/30 08:48:01;;;;;;;;;;;;;;;;;;4215812;34;20018;-82
2021/04/30 08:50:31;;;;;;;;;;;;;;;;;;4204299;34;20051;-84
2021/04/30 08:53:01;;;;;;;;;;;;;;;;;;4205103;34;20018;-84
2021/04/30 08:55:29;;;;;;;;;;;;;;;;;;4204352;34;19994;-83
2021/04/30 08:57:59;;;;;;;;;;;;;;;;;;4202851;34;20915;-84
2021/04/30 09:00:30;;;;;;;;;;;;;;;;;;4206998;34;19992;-83
2021/04/30 09:03:00;;;;;;;;;;;;;;;;;;4211141;34;20030;-84
2021/04/30 09:05:28;;;;;;;;;;;;;;;;;;4208573;34;20014;-84
2021/04/30 09:07:56;;;;;;;;;;;;;;;;;;4205364;34;19966;-83
2021/04/30 09:10:26;;;;;;;;;;;;;;;;;;4207141;34;20143;-83
2021/04/30 09:12:56;;;;;;;;;;;;;;;;;;4192828;34;20487;-83
2021/04/30 09:15:26;;;;;;;;;;;;;;;;;;4203599;34;19959;-83
2021/04/30 09:17:59;;;;;;;;;;;;;;;;;;4201748;34;20029;-84
2021/04/30 09:20:29;;;;;;;;;;;;;;;;;;4203081;34;20039;-84
2021/04/30 09:22:59;;;;;;;;;;;;;;;;;;4191172;34;19987;-85
2021/04/30 09:25:29;;;;;;;;;;;;;;;;;;4196663;34;19973;-85
2021/04/30 09:28:00;;;;;;;;;;;;;;;;;;4204837;34;19955;-84
2021/04/30 09:30:30;;;;;;;;;;;;;;;;;;4202932;34;20050;-84
2021/04/30 09:33:00;;;;;;;;;;;;;;;;;;4203707;34;20466;-84
2021/04/30 09:35:32;;;;;;;;;;;;;;;;;;4201778;34;20430;-85
2021/04/30 09:38:02;;;;;;;;;;;;;;;;;;4206691;34;19962;-84
2021/04/30 09:40:33;;;;;;;;;;;;;;;;;;4202496;34;19959;-85
2021/04/30 09:43:04;;;;;;;;;;;;;;;;;;4214698;34;19962;-84
2021/04/30 09:45:34;;;;;;;;;;;;;;;;;;4205588;34;19959;-84
2021/04/30 09:48:05;;;;;;;;;;;;;;;;;;4204795;34;20030;-84
2021/04/30 09:50:35;;;;;;;;;;;;;;;;;;4205270;34;19983;-85
2021/04/30 09:53:07;;;;;;;;;;;;;;;;;;4213863;34;19951;-84
2021/04/30 09:55:37;;;;;;;;;;;;;;;;;;4211362;34;19966;-84
2021/04/30 09:58:07;;;;;;;;;;;;;;;;;;4219185;34;20026;-84
2021/04/30 10:00:37;;;;;;;;;;;;;;;;;;4219500;34;19955;-83
2021/04/30 10:03:07;;;;;;;;;;;;;;;;;;4206958;34;20037;-83
2021/04/30 10:05:35;;;;;;;;;;;;;;;;;;4219017;34;19991;-83
2021/04/30 10:08:07;;;;;;;;;;;;;;;;;;4219037;34;19974;-83
2021/04/30 10:10:39;;;;;;;;;;;;;;;;;;4216414;34;20382;-84
2021/04/30 10:13:09;;;;;;;;;;;;;;;;;;4216189;34;20018;-84
2021/04/30 10:15:39;;;;;;;;;;;;;;;;;;4208763;34;20034;-84
2021/04/30 10:18:16;;;;;;;;;;;;;;;;;;4200188;34;20022;-84
2021/04/30 10:20:46;;;;;;;;;;;;;;;;;;4207263;34;20355;-84
2021/04/30 10:23:17;;;;;;;;;;;;;;;;;;4213517;34;20315;-83
2021/04/30 10:25:48;;;;;;;;;;;;;;;;;;4212566;34;20002;-84
2021/04/30 10:28:18;;;;;;;;;;;;;;;;;;4205572;34;19997;-84
2021/04/30 10:30:48;;;;;;;;;;;;;;;;;;4209547;34;19954;-84
2021/04/30 10:33:19;;;;;;;;;;;;;;;;;;4212318;34;20025;-84
2021/04/30 10:35:49;;;;;;;;;;;;;;;;;;4210937;34;20052;-83
2021/04/30 10:38:19;;;;;;;;;;;;;;;;;;4204260;34;19967;-83
2021/04/30 10:40:49;;;;;;;;;;;;;;;;;;4210201;34;20411;-83
2021/04/30 10:43:20;;;;;;;;;;;;;;;;;;4195836;34;20361;-83
2021/04/30 10:45:50;;;;;;;;;;;;;;;;;;4185291;34;19969;-83
2021/04/30 10:48:20;;;;;;;;;;;;;;;;;;4210589;34;20029;-83
2021/04/30 10:50:51;;;;;;;;;;;;;;;;;;4208772;34;19967;-83
2021/04/30 10:53:22;;;;;;;;;;;;;;;;;;4212971;34;20133;-83
2021/04/30 10:55:52;;;;;;;;;;;;;;;;;;4210866;34;19959;-83
2021/04/30 10:58:22;;;;;;;;;;;;;;;;;;4205613;34;20070;-82
2021/04/30 11:00:53;;;;;;;;;;;;;;;;;;4197491;34;20327;-82
2021/04/30 11:03:24;;;;;;;;;;;;;;;;;;4214037;34;19961;-83
2021/04/30 11:05:58;;;;;;;;;;;;;;;;;;4218742;34;20029;-82
2021/04/30 11:08:28;;;;;;;;;;;;;;;;;;4206213;34;19994;-82
2021/04/30 11:10:55;;;;;;;;;;;;;;;;;;4211847;34;19976;-83
2021/04/30 11:13:27;;;;;;;;;;;;;;;;;;4209894;34;20046;-83
2021/04/30 11:15:57;;;;;;;;;;;;;;;;;;4222510;34;19954;-82
2021/04/30 11:18:30;;;;;;;;;;;;;;;;;;4213772;34;19979;-84
2021/04/30 11:21:01;;;;;;;;;;;;;;;;;;4197930;34;20021;-83
2021/04/30 11:23:31;;;;;;;;;;;;;;;;;;4215539;34;20025;-84
2021/04/30 11:26:03;;;;;;;;;;;;;;;;;;4221020;34;20014;-84
2021/04/30 11:28:34;;;;;;;;;;;;;;;;;;4204912;34;20003;-83
2021/04/30 11:31:04;;;;;;;;;;;;;;;;;;4208648;34;19971;-83
2021/04/30 11:33:34;;;;;;;;;;;;;;;;;;4216316;34;20038;-84
2021/04/30 11:36:04;;;;;;;;;;;;;;;;;;4213492;34;20029;-84
2021/04/30 11:39:06;;;;;;;;;;;;;;;;;;4210343;34;20059;-83
2021/04/30 11:41:37;;;;;;;;;;;;;;;;;;4211356;34;19963;-84
2021/04/30 11:44:07;;;;;;;;;;;;;;;;;;4218885;34;19977;-83
2021/04/30 11:46:38;;;;;;;;;;;;;;;;;;4215808;34;19963;-83
2021/04/30 11:49:09;;;;;;;;;;;;;;;;;;4200370;34;19962;-83
2021/04/30 11:51:39;;;;;;;;;;;;;;;;;;4208673;34;20008;-83
2021/04/30 11:54:09;;;;;;;;;;;;;;;;;;4206583;34;20712;-82
2021/04/30 11:56:45;;;;;;;;;;;;;;;;;;4211441;34;20017;-82
2021/04/30 11:59:15;;;;;;;;;;;;;;;;;;4213231;34;19962;-81
2021/04/30 12:01:52;;;;;;;;;;;;;;;;;;4218849;34;20308;-82
2021/04/30 12:04:23;;;;;;;;;;;;;;;;;;4203153;34;20025;-83
2021/04/30 12:07:03;;;;;;;;;;;;;;;;;;4187933;34;19967;-83
2021/04/30 12:09:51;;;;;;;;;;;;;;;;;;4210331;34;20013;-83
2021/04/30 12:12:21;;;;;;;;;;;;;;;;;;4214734;34;20065;-82
2021/04/30 12:14:49;;;;;;;;;;;;;;;;;;4215694;34;20431;-83
2021/04/30 12:17:19;;;;;;;;;;;;;;;;;;4214738;34;19973;-82
2021/04/30 12:19:46;;;;;;;;;;;;;;;;;;4215809;34;20056;-83
2021/04/30 12:22:17;;;;;;;;;;;;;;;;;;4218080;34;19992;-83
2021/04/30 12:24:47;;;;;;;;;;;;;;;;;;4215900;34;19967;-82
2021/04/30 12:27:17;;;;;;;;;;;;;;;;;;4214628;34;20005;-83
2021/04/30 12:29:51;;;;;;;;;;;;;;;;;;4215694;34;20011;-83
2021/04/30 12:32:22;;;;;;;;;;;;;;;;;;4206424;34;19965;-83
2021/04/30 12:34:56;;;;;;;;;;;;;;;;;;4216703;34;19997;-84
2021/04/30 12:37:44;;;;;;;;;;;;;;;;;;4212463;34;19967;-83
2021/04/30 12:40:14;;;;;;;;;;;;;;;;;;4213846;34;19954;-85
2021/04/30 12:42:45;;;;;;;;;;;;;;;;;;4209681;34;19971;-84
2021/04/30 12:45:15;;;;;;;;;;;;;;;;;;4215310;34;19967;-83
2021/04/30 12:47:46;;;;;;;;;;;;;;;;;;4200913;34;20096;-84
2021/04/30 12:50:17;;;;;;;;;;;;;;;;;;4210428;34;19955;-84
2021/04/30 12:52:48;;;;;;;;;;;;;;;;;;4219065;34;19963;-84
2021/04/30 12:55:16;;;;;;;;;;;;;;;;;;4213704;34;19954;-83
2021/04/30 12:57:46;;;;;;;;;;;;;;;;;;4212353;34;20343;-83
2021/04/30 13:00:16;;;;;;;;;;;;;;;;;;4206922;34;20018;-83
2021/04/30 13:02:46;;;;;;;;;;;;;;;;;;4208565;34;19986;-83
2021/04/30 13:05:16;;;;;;;;;;;;;;;;;;4212796;34;20109;-83
2021/04/30 13:07:44;;;;;;;;;;;;;;;;;;4222471;34;20299;-83
2021/04/30 13:10:14;;;;;;;;;;;;;;;;;;4204346;34;19962;-83
2021/04/30 13:12:45;;;;;;;;;;;;;;;;;;4221432;34;20006;-83
2021/04/30 13:15:13;;;;;;;;;;;;;;;;;;4215033;34;19961;-83
2021/04/30 13:17:43;;;;;;;;;;;;;;;;;;4213043;34;19967;-83
2021/04/30 13:20:27;;;;;;;;;;;;;;;;;;4213289;34;19955;-83
2021/04/30 13:23:07;;;;;;;;;;;;;;;;;;4223868;34;20401;-83
2021/04/30 13:25:58;;;;;;;;;;;;;;;;;;4211089;34;19978;-83
2021/04/30 13:28:31;;;;;;;;;;;;;;;;;;4214973;34;19975;-83
2021/04/30 13:31:00;;;;;;;;;;;;;;;;;;4216799;34;19994;-84
2021/04/30 13:33:33;;;;;;;;;;;;;;;;;;4227469;34;20032;-84
2021/04/30 13:36:03;;;;;;;;;;;;;;;;;;4218635;34;19997;-83
2021/04/30 13:38:33;;;;;;;;;;;;;;;;;;4216000;34;20007;-83
2021/04/30 13:41:03;;;;;;;;;;;;;;;;;;4215067;34;19962;-83
2021/04/30 13:43:31;;;;;;;;;;;;;;;;;;4225137;34;19967;-83
2021/04/30 13:46:01;;;;;;;;;;;;;;;;;;4217420;34;19971;-83
2021/04/30 13:48:31;;;;;;;;;;;;;;;;;;4205731;34;20377;-83
2021/04/30 13:51:01;;;;;;;;;;;;;;;;;;4204253;34;20025;-83
2021/04/30 13:53:32;;;;;;;;;;;;;;;;;;4222726;34;20003;-83
2021/04/30 13:56:02;;;;;;;;;;;;;;;;;;4217477;34;19959;-83
2021/04/30 13:58:32;;;;;;;;;;;;;;;;;;4211117;34;19978;-84
2021/04/30 14:01:12;;;;;;;;;;;;;;;;;;4208770;34;19967;-84
2021/04/30 14:03:42;;;;;;;;;;;;;;;;;;4220717;34;19974;-83
2021/04/30 14:06:12;;;;;;;;;;;;;;;;;;4223988;34;19992;-84
2021/04/30 14:08:42;;;;;;;;;;;;;;;;;;4193793;34;20025;-83
2021/04/30 14:11:13;;;;;;;;;;;;;;;;;;4207511;34;19959;-83
2021/04/30 14:13:44;;;;;;;;;;;;;;;;;;4215654;34;19963;-83
2021/04/30 14:16:14;;;;;;;;;;;;;;;;;;4210871;34;19955;-83
2021/04/30 14:18:45;;;;;;;;;;;;;;;;;;4216852;34;19988;-83
2021/04/30 14:21:16;;;;;;;;;;;;;;;;;;4215147;34;20018;-84
2021/04/30 14:23:46;;;;;;;;;;;;;;;;;;4202703;34;20333;-83
2021/04/30 14:26:16;;;;;;;;;;;;;;;;;;4213845;34;19977;-82
2021/04/30 14:28:46;;;;;;;;;;;;;;;;;;4211170;34;19963;-83
2021/04/30 14:31:16;;;;;;;;;;;;;;;;;;4200444;34;20044;-83
2021/04/30 14:33:46;;;;;;;;;;;;;;;;;;4220258;34;19954;-83
2021/04/30 14:36:16;;;;;;;;;;;;;;;;;;4209070;34;20022;-83
2021/04/30 14:38:47;;;;;;;;;;;;;;;;;;4201066;34;20049;-83
2021/04/30 14:41:18;;;;;;;;;;;;;;;;;;4222689;34;19962;-83
2021/04/30 14:43:58;;;;;;;;;;;;;;;;;;4193936;34;20070;-83
2021/04/30 14:46:38;;;;;;;;;;;;;;;;;;4202571;34;19967;-84
2021/04/30 14:49:09;;;;;;;;;;;;;;;;;;4214556;34;19962;-84
2021/04/30 14:51:39;;;;;;;;;;;;;;;;;;4219859;34;19971;-83
2021/04/30 14:54:12;;;;;;;;;;;;;;;;;;4214959;34;20002;-84
2021/04/30 14:56:42;;;;;;;;;;;;;;;;;;4211438;34;20035;-83
2021/04/30 14:59:13;;;;;;;;;;;;;;;;;;4216259;34;19990;-83
2021/04/30 15:01:43;;;;;;;;;;;;;;;;;;4212080;34;20037;-84
2021/04/30 15:04:14;;;;;;;;;;;;;;;;;;4191960;34;19976;-83
2021/04/30 15:06:45;;;;;;;;;;;;;;;;;;4206727;34;19971;-84
2021/04/30 15:09:19;;;;;;;;;;;;;;;;;;4208725;34;19995;-84
2021/04/30 15:11:49;;;;;;;;;;;;;;;;;;4217783;34;20384;-83
2021/04/30 15:14:19;;;;;;;;;;;;;;;;;;4207961;34;20001;-84
2021/04/30 15:16:49;;;;;;;;;;;;;;;;;;4206633;34;19967;-84
2021/04/30 15:19:20;;;;;;;;;;;;;;;;;;4193979;34;20022;-84
2021/04/30 15:21:50;;;;;;;;;;;;;;;;;;4209809;34;19999;-83
2021/04/30 15:24:20;;;;;;;;;;;;;;;;;;4205495;34;20379;-85
2021/04/30 15:26:51;;;;;;;;;;;;;;;;;;4205317;34;20436;-84
2021/04/30 15:29:21;;;;;;;;;;;;;;;;;;4209540;34;20658;-83
2021/04/30 15:31:49;;;;;;;;;;;;;;;;;;4213786;34;19989;-83
2021/04/30 15:34:19;;;;;;;;;;;;;;;;;;4209332;34;20002;-84
2021/04/30 15:36:55;;;;;;;;;;;;;;;;;;4207917;34;20038;-84
2021/04/30 15:39:25;;;;;;;;;;;;;;;;;;4210481;34;19959;-84
2021/04/30 15:41:56;;;;;;;;;;;;;;;;;;4218903;34;19994;-84
2021/04/30 15:44:28;;;;;;;;;;;;;;;;;;4212554;34;20022;-84
2021/04/30 15:46:59;;;;;;;;;;;;;;;;;;4208963;34;19959;-84
2021/04/30 15:49:29;;;;;;;;;;;;;;;;;;4210390;34;19967;-84
2021/04/30 15:52:00;;;;;;;;;;;;;;;;;;4202517;34;20006;-84
2021/04/30 15:54:30;;;;;;;;;;;;;;;;;;4200669;34;20014;-84
2021/04/30 15:57:01;;;;;;;;;;;;;;;;;;4206316;34;19967;-84
2021/04/30 15:59:31;;;;;;;;;;;;;;;;;;4214734;34;19980;-84
2021/04/30 16:02:02;;;;;;;;;;;;;;;;;;4220507;34;20334;-83
2021/04/30 16:04:32;;;;;;;;;;;;;;;;;;4208254;34;20036;-84
2021/04/30 16:07:00;;;;;;;;;;;;;;;;;;4217528;34;20082;-85
2021/04/30 16:09:31;;;;;;;;;;;;;;;;;;4216314;34;20002;-83
2021/04/30 16:12:02;;;;;;;;;;;;;;;;;;4217736;34;20061;-85
2021/04/30 16:14:32;;;;;;;;;;;;;;;;;;4211174;34;20037;-84
2021/04/30 16:17:00;;;;;;;;;;;;;;;;;;4213175;34;20049;-83
2021/04/30 16:19:30;;;;;;;;;;;;;;;;;;4204067;34;19986;-85
2021/04/30 16:22:01;;;;;;;;;;;;;;;;;;4210032;34;20266;-84
2021/04/30 16:24:31;;;;;;;;;;;;;;;;;;4205883;34;19970;-83
2021/04/30 16:27:01;;;;;;;;;;;;;;;;;;4212618;34;20029;-84
2021/04/30 16:29:32;;;;;;;;;;;;;;;;;;4213110;34;20000;-84
2021/04/30 16:32:02;;;;;;;;;;;;;;;;;;4213580;34;19959;-83
2021/04/30 16:34:34;;;;;;;;;;;;;;;;;;4207128;34;20010;-84
2021/04/30 16:37:03;;;;;;;;;;;;;;;;;;4214677;34;19985;-83
2021/04/30 16:39:34;;;;;;;;;;;;;;;;;;4185897;34;19982;-84
2021/04/30 16:42:05;;;;;;;;;;;;;;;;;;4208462;34;19958;-83
2021/04/30 16:44:35;;;;;;;;;;;;;;;;;;4215394;34;20307;-83
2021/04/30 16:47:06;;;;;;;;;;;;;;;;;;4211006;34;19976;-83
2021/04/30 16:49:37;;;;;;;;;;;;;;;;;;4207703;34;19966;-83
2021/04/30 16:52:04;;;;;;;;;;;;;;;;;;4201984;34;20317;-83
2021/04/30 16:54:38;;;;;;;;;;;;;;;;;;4200644;34;19971;-83
2021/04/30 16:57:06;;;;;;;;;;;;;;;;;;4212829;34;20339;-84
2021/04/30 16:59:37;;;;;;;;;;;;;;;;;;4201102;34;20333;-83
2021/04/30 17:02:07;;;;;;;;;;;;;;;;;;4204643;34;19982;-83
2021/04/30 17:04:39;;;;;;;;;;;;;;;;;;4211336;34;20721;-83
2021/04/30 17:07:10;;;;;;;;;;;;;;;;;;4215957;34;19971;-83
2021/04/30 17:09:42;;;;;;;;;;;;;;;;;;4202506;34;20306;-84
2021/04/30 17:12:13;;;;;;;;;;;;;;;;;;4197081;34;19981;-83
2021/04/30 17:14:43;;;;;;;;;;;;;;;;;;4212515;34;20383;-84
2021/04/30 17:17:13;;;;;;;;;;;;;;;;;;4210446;34;19988;-83
2021/04/30 17:19:43;;;;;;;;;;;;;;;;;;4222886;34;20014;-83
2021/04/30 17:22:13;;;;;;;;;;;;;;;;;;4222021;34;19951;-84
2021/04/30 17:24:55;;;;;;;;;;;;;;;;;;4210238;34;20048;-84
2021/04/30 17:27:28;;;;;;;;;;;;;;;;;;4207956;34;20018;-84
2021/04/30 17:29:58;;;;;;;;;;;;;;;;;;4202826;34;20351;-83
2021/04/30 17:32:28;;;;;;;;;;;;;;;;;;4209770;34;20022;-83
2021/04/30 17:34:58;;;;;;;;;;;;;;;;;;4208394;34;20026;-83
2021/04/30 17:37:26;;;;;;;;;;;;;;;;;;4194171;34;19996;-83
2021/04/30 17:39:56;;;;;;;;;;;;;;;;;;4204033;34;20031;-84
2021/04/30 17:42:27;;;;;;;;;;;;;;;;;;4208687;34;19969;-83
2021/04/30 17:44:56;;;;;;;;;;;;;;;;;;4198046;34;20358;-83